createdAt,value
2023-02-27T00:02:02.389Z,80.50
2023-02-27T00:04:33.303Z,80.50
2023-02-27T00:07:08.762Z,82.40
2023-02-27T00:09:36.752Z,83.00
2023-02-27T00:12:06.120Z,81.20
2023-02-27T00:14:36.832Z,81.60
2023-02-27T00:17:04.757Z,83.50
2023-02-27T00:19:32.650Z,84.10
2023-02-27T00:22:02.644Z,82.70
2023-02-27T00:24:33.261Z,82.90
2023-02-27T00:27:01.171Z,88.00
2023-02-27T00:29:32.821Z,87.50
2023-02-27T00:32:00.843Z,83.20
2023-02-27T00:34:28.752Z,83.00
2023-02-27T00:36:56.623Z,87.00
2023-02-27T00:39:24.500Z,89.40
2023-02-27T00:41:52.360Z,84.70
2023-02-27T00:44:20.260Z,82.40
2023-02-27T00:46:49.494Z,82.00
2023-02-27T00:49:17.594Z,83.00
2023-02-27T00:51:45.425Z,82.40
2023-02-27T00:54:18.923Z,81.30
2023-02-27T00:56:52.794Z,82.30
2023-02-27T00:59:20.847Z,84.80
2023-02-27T01:01:56.059Z,84.30
2023-02-27T01:04:26.014Z,83.60
2023-02-27T01:06:53.918Z,83.50
2023-02-27T01:09:21.914Z,86.40
2023-02-27T01:11:49.808Z,87.20
2023-02-27T01:14:23.565Z,84.60
2023-02-27T01:16:59.027Z,84.40
2023-02-27T01:19:29.576Z,87.40
2023-02-27T01:21:57.500Z,87.40
2023-02-27T01:24:26.567Z,84.50
2023-02-27T01:26:57.485Z,85.70
2023-02-27T01:29:25.495Z,91.20
2023-02-27T01:31:55.880Z,92.90
2023-02-27T01:34:28.044Z,91.30
2023-02-27T01:36:59.001Z,92.50
2023-02-27T01:39:32.835Z,94.10
2023-02-27T01:42:04.037Z,92.10
2023-02-27T01:44:32.722Z,90.00
2023-02-27T01:47:00.620Z,90.30
2023-02-27T01:49:44.546Z,92.20
2023-02-27T01:52:15.242Z,86.80
2023-02-27T01:54:43.725Z,81.50
2023-02-27T01:57:17.617Z,87.40
2023-02-27T01:59:48.445Z,90.30
2023-02-27T02:02:22.401Z,79.90
2023-02-27T02:04:56.257Z,78.90
2023-02-27T02:07:25.356Z,86.20
2023-02-27T02:09:56.277Z,89.30
2023-02-27T02:12:28.899Z,81.80
2023-02-27T02:14:56.763Z,79.90
2023-02-27T02:17:40.092Z,86.90
2023-02-27T02:20:38.524Z,88.80
2023-02-27T02:23:48.622Z,81.80
2023-02-27T02:26:45.017Z,80.60
2023-02-27T02:30:04.233Z,90.20
2023-02-27T02:33:11.502Z,83.70
2023-02-27T02:36:27.364Z,79.10
2023-02-27T02:39:28.619Z,88.70
2023-02-27T02:42:05.572Z,82.00
2023-02-27T02:44:53.248Z,79.80
2023-02-27T02:47:31.753Z,86.10
2023-02-27T02:50:08.504Z,87.70
2023-02-27T02:52:51.441Z,79.10
2023-02-27T02:55:36.263Z,80.10
2023-02-27T02:58:13.098Z,83.60
2023-02-27T03:00:46.911Z,81.00
2023-02-27T03:03:21.195Z,79.60
2023-02-27T03:05:57.450Z,85.90
2023-02-27T03:08:30.310Z,88.50
2023-02-27T03:11:00.596Z,81.00
2023-02-27T03:13:35.678Z,80.50
2023-02-27T03:16:10.123Z,85.20
2023-02-27T03:18:53.971Z,83.80
2023-02-27T03:21:30.561Z,81.00
2023-02-27T03:24:02.436Z,83.80
2023-02-27T03:26:37.433Z,84.90
2023-02-27T03:29:11.346Z,82.50
2023-02-27T03:31:43.475Z,81.90
2023-02-27T03:34:16.903Z,84.90
2023-02-27T03:36:53.953Z,89.50
2023-02-27T03:39:49.932Z,84.20
2023-02-27T03:42:38.697Z,82.60
2023-02-27T03:45:26.992Z,90.30
2023-02-27T03:47:54.988Z,86.80
2023-02-27T03:50:23.105Z,82.50
2023-02-27T03:52:54.077Z,82.80
2023-02-27T03:55:26.021Z,85.70
2023-02-27T03:58:01.916Z,83.70
2023-02-27T04:00:31.230Z,82.30
2023-02-27T04:03:06.494Z,85.10
2023-02-27T04:05:40.238Z,89.40
2023-02-27T04:08:31.724Z,84.40
2023-02-27T04:11:18.425Z,83.50
2023-02-27T04:14:10.480Z,92.10
2023-02-27T04:16:59.692Z,89.00
2023-02-27T04:19:54.500Z,82.90
2023-02-27T04:22:33.899Z,87.40
2023-02-27T04:25:24.875Z,91.00
2023-02-27T04:28:02.268Z,84.60
2023-02-27T04:30:42.753Z,87.00
2023-02-27T04:33:30.263Z,92.00
2023-02-27T04:36:07.954Z,91.90
2023-02-27T04:38:52.585Z,88.10
2023-02-27T04:41:33.571Z,91.40
2023-02-27T04:44:03.056Z,90.60
2023-02-27T04:46:40.145Z,82.30
2023-02-27T04:49:22.772Z,82.90
2023-02-27T04:51:56.608Z,84.20
2023-02-27T04:54:29.027Z,82.20
2023-02-27T04:57:03.822Z,79.80
2023-02-27T04:59:40.655Z,82.60
2023-02-27T05:02:19.754Z,85.20
2023-02-27T05:04:50.595Z,80.50
2023-02-27T05:07:24.310Z,81.00
2023-02-27T05:09:57.296Z,84.40
2023-02-27T05:12:35.649Z,84.60
2023-02-27T05:15:09.939Z,81.80
2023-02-27T05:17:41.982Z,84.10
2023-02-27T05:20:12.997Z,85.60
2023-02-27T05:23:07.129Z,86.10
2023-02-27T05:25:47.105Z,83.70
2023-02-27T05:28:20.742Z,83.90
2023-02-27T05:31:00.183Z,89.30
2023-02-27T05:33:40.602Z,90.70
2023-02-27T05:36:24.188Z,88.40
2023-02-27T05:38:58.071Z,90.40
2023-02-27T05:41:30.484Z,85.20
2023-02-27T05:44:09.724Z,82.30
2023-02-27T05:46:42.601Z,88.60
2023-02-27T05:49:17.880Z,91.60
2023-02-27T05:51:53.130Z,90.10
2023-02-27T05:54:30.933Z,89.40
2023-02-27T05:57:12.737Z,92.10
2023-02-27T05:59:46.802Z,91.40
2023-02-27T06:02:15.037Z,87.60
2023-02-27T06:04:46.493Z,90.70
2023-02-27T06:07:18.719Z,89.00
2023-02-27T06:09:54.084Z,82.90
2023-02-27T06:12:24.020Z,83.20
2023-02-27T06:14:52.203Z,86.40
2023-02-27T06:17:22.936Z,83.20
2023-02-27T06:19:50.800Z,84.10
2023-02-27T06:22:20.046Z,82.80
2023-02-27T06:24:47.851Z,83.60
2023-02-27T06:27:18.479Z,81.20
2023-02-27T06:29:46.301Z,91.00
2023-02-27T06:32:14.107Z,91.60
2023-02-27T06:34:41.949Z,85.20
2023-02-27T06:37:17.400Z,82.20
2023-02-27T06:39:47.941Z,88.60
2023-02-27T06:42:15.910Z,91.80
2023-02-27T06:44:48.992Z,85.90
2023-02-27T06:47:22.709Z,84.00
2023-02-27T06:50:03.615Z,90.30
2023-02-27T06:52:34.725Z,90.70
2023-02-27T06:55:11.151Z,81.00
2023-02-27T06:57:39.114Z,82.00
2023-02-27T07:00:08.274Z,86.10
2023-02-27T07:02:36.147Z,92.00
2023-02-27T07:05:08.081Z,88.50
2023-02-27T07:07:38.642Z,82.20
2023-02-27T07:10:12.157Z,78.60
2023-02-27T07:12:43.388Z,78.80
2023-02-27T07:15:17.071Z,78.20
2023-02-27T07:17:44.970Z,79.70
2023-02-27T07:20:15.778Z,80.80
2023-02-27T07:22:43.837Z,78.80
2023-02-27T07:25:13.046Z,80.70
2023-02-27T07:27:44.324Z,81.60
2023-02-27T07:30:13.609Z,81.00
2023-02-27T07:32:41.477Z,83.40
2023-02-27T07:35:10.356Z,84.40
2023-02-27T07:37:38.416Z,84.00
2023-02-27T07:40:07.552Z,85.30
2023-02-27T07:42:39.416Z,87.90
2023-02-27T07:45:11.018Z,85.50
2023-02-27T07:47:38.846Z,87.10
2023-02-27T07:50:07.352Z,88.20
2023-02-27T07:52:38.418Z,89.30
2023-02-27T07:55:06.850Z,89.00
2023-02-27T07:57:39.231Z,89.20
2023-02-27T08:00:11.180Z,90.70
2023-02-27T08:02:39.341Z,90.70
2023-02-27T08:05:07.984Z,91.10
2023-02-27T08:07:36.555Z,91.80
2023-02-27T08:10:05.201Z,91.90
2023-02-27T08:12:35.954Z,92.10
2023-02-27T08:15:06.311Z,93.70
2023-02-27T08:17:34.151Z,95.70
2023-02-27T08:20:02.098Z,91.80
2023-02-27T08:22:29.973Z,90.60
2023-02-27T08:24:57.839Z,90.20
2023-02-27T08:27:25.747Z,90.60
2023-02-27T08:29:53.697Z,90.80
2023-02-27T08:32:23.220Z,91.00
2023-02-27T08:34:51.788Z,91.70
2023-02-27T08:37:19.843Z,92.30
2023-02-27T08:39:52.347Z,92.80
2023-02-27T08:42:26.929Z,93.20
2023-02-27T08:44:56.891Z,93.00
2023-02-27T08:47:26.296Z,93.30
2023-02-27T08:49:54.145Z,92.90
2023-02-27T08:52:24.864Z,94.00
2023-02-27T08:54:55.036Z,94.20
2023-02-27T08:57:23.033Z,93.20
2023-02-27T08:59:53.146Z,93.30
2023-02-27T09:02:23.625Z,92.80
2023-02-27T09:04:52.934Z,92.70
2023-02-27T09:07:21.375Z,92.40
2023-02-27T09:09:50.129Z,92.60
2023-02-27T09:12:21.176Z,93.10
2023-02-27T09:14:49.453Z,92.60
2023-02-27T09:17:17.312Z,92.70
2023-02-27T09:19:45.254Z,93.00
2023-02-27T09:22:20.826Z,92.50
2023-02-27T09:24:51.734Z,93.00
2023-02-27T09:27:21.606Z,92.70
2023-02-27T09:29:55.327Z,92.30
2023-02-27T09:32:23.477Z,93.00
2023-02-27T09:34:54.407Z,92.40
2023-02-27T09:37:26.404Z,92.50
2023-02-27T09:40:00.539Z,93.10
2023-02-27T09:42:45.427Z,92.50
2023-02-27T09:45:24.129Z,93.00
2023-02-27T09:47:56.030Z,93.00
2023-02-27T09:50:37.122Z,92.70
2023-02-27T09:53:11.834Z,92.90
2023-02-27T09:55:44.551Z,92.00
2023-02-27T09:58:41.531Z,92.70
2023-02-27T10:01:15.872Z,92.00
2023-02-27T10:04:14.408Z,92.60
2023-02-27T10:06:49.358Z,92.00
2023-02-27T10:09:41.320Z,91.30
2023-02-27T10:12:32.210Z,91.40
2023-02-27T10:15:05.855Z,92.40
2023-02-27T10:17:39.462Z,92.90
2023-02-27T10:20:11.151Z,92.00
2023-02-27T10:22:44.173Z,90.90
2023-02-27T10:25:30.666Z,90.70
2023-02-27T10:28:09.739Z,90.80
2023-02-27T10:30:37.855Z,90.60
2023-02-27T10:33:23.648Z,91.00
2023-02-27T10:35:57.761Z,90.20
2023-02-27T10:38:33.016Z,90.60
2023-02-27T10:41:03.327Z,90.70
2023-02-27T10:43:31.221Z,90.70
2023-02-27T10:46:03.250Z,90.80
2023-02-27T10:48:33.431Z,90.20
2023-02-27T10:51:21.182Z,90.30
2023-02-27T10:53:49.083Z,90.10
2023-02-27T10:56:25.089Z,90.20
2023-02-27T10:59:07.713Z,90.10
2023-02-27T11:01:53.396Z,90.50
2023-02-27T11:04:34.351Z,90.40
2023-02-27T11:07:04.922Z,90.20
2023-02-27T11:09:34.401Z,90.00
2023-02-27T11:12:19.902Z,89.50
2023-02-27T11:14:53.095Z,91.60
2023-02-27T11:17:32.233Z,88.50
2023-02-27T11:20:06.464Z,87.50
2023-02-27T11:22:34.628Z,88.20
2023-02-27T11:25:22.272Z,89.60
2023-02-27T11:28:20.606Z,88.10
2023-02-27T11:31:05.954Z,88.20
2023-02-27T11:33:40.206Z,87.60
2023-02-27T11:36:09.316Z,87.90
2023-02-27T11:38:37.202Z,86.90
2023-02-27T11:41:10.497Z,88.30
2023-02-27T11:43:47.896Z,86.40
2023-02-27T11:46:46.427Z,85.10
2023-02-27T11:49:24.112Z,86.60
2023-02-27T11:52:00.512Z,87.40
2023-02-27T11:54:37.965Z,88.90
2023-02-27T11:57:26.102Z,87.40
2023-02-27T12:00:16.255Z,85.80
2023-02-27T12:02:51.276Z,85.20
2023-02-27T12:05:21.709Z,85.50
2023-02-27T12:07:55.943Z,85.10
2023-02-27T12:10:27.288Z,85.20
2023-02-27T12:12:59.964Z,85.60
2023-02-27T12:15:35.317Z,84.50
2023-02-27T12:18:24.295Z,84.90
2023-02-27T12:20:58.458Z,84.30
2023-02-27T12:23:32.870Z,85.70
2023-02-27T12:26:08.960Z,84.40
2023-02-27T12:29:07.268Z,84.10
2023-02-27T12:31:46.982Z,85.40
2023-02-27T12:34:37.500Z,84.70
2023-02-27T12:37:10.597Z,85.00
2023-02-27T12:39:40.267Z,85.50
2023-02-27T12:42:56.248Z,84.80
2023-02-27T12:45:54.332Z,84.50
2023-02-27T12:48:47.525Z,85.10
2023-02-27T12:51:37.018Z,84.20
2023-02-27T12:54:34.038Z,85.00
2023-02-27T12:57:25.636Z,87.30
2023-02-27T13:00:12.433Z,84.70
2023-02-27T13:03:02.050Z,85.40
2023-02-27T13:05:45.503Z,85.60
2023-02-27T13:08:57.675Z,86.50
2023-02-27T13:11:53.845Z,86.50
2023-02-27T13:14:32.262Z,87.40
2023-02-27T13:17:19.590Z,87.50
2023-02-27T13:20:01.368Z,85.10
2023-02-27T13:22:38.250Z,86.70
2023-02-27T13:25:15.375Z,87.60
2023-02-27T13:27:46.671Z,86.10
2023-02-27T13:30:24.955Z,84.10
2023-02-27T13:33:17.231Z,84.10
2023-02-27T13:35:55.980Z,84.40
2023-02-27T13:38:45.399Z,84.60
2023-02-27T13:41:38.084Z,83.40
2023-02-27T13:44:49.323Z,83.90
2023-02-27T13:47:40.331Z,84.60
2023-02-27T13:50:45.438Z,82.50
2023-02-27T13:53:25.866Z,81.70
2023-02-27T13:56:01.077Z,82.00
2023-02-27T13:58:29.014Z,81.60
2023-02-27T14:01:00.958Z,81.40
2023-02-27T14:03:33.351Z,81.30
2023-02-27T14:06:13.018Z,80.70
2023-02-27T14:08:50.196Z,80.40
2023-02-27T14:11:29.658Z,80.70
2023-02-27T14:14:44.273Z,80.10
2023-02-27T14:17:13.560Z,79.50
2023-02-27T14:19:57.102Z,79.60
2023-02-27T14:23:08.119Z,80.40
2023-02-27T14:25:39.842Z,79.20
2023-02-27T14:28:17.589Z,79.20
2023-02-27T14:30:52.541Z,79.50
2023-02-27T14:33:39.236Z,79.10
2023-02-27T14:36:19.864Z,79.50
2023-02-27T14:38:55.404Z,79.80
2023-02-27T14:41:44.790Z,80.90
2023-02-27T14:44:22.579Z,78.30
2023-02-27T14:46:55.037Z,78.10
2023-02-27T14:49:28.911Z,79.30
2023-02-27T14:52:21.862Z,78.20
2023-02-27T14:54:50.069Z,77.80
2023-02-27T14:57:19.668Z,78.00
2023-02-27T14:59:56.136Z,77.50
2023-02-27T15:02:27.096Z,77.70
2023-02-27T15:05:16.563Z,77.50
2023-02-27T15:07:54.520Z,77.90
2023-02-27T15:10:30.748Z,78.30
2023-02-27T15:13:02.559Z,78.60
2023-02-27T15:15:34.361Z,78.30
2023-02-27T15:18:02.235Z,78.80
2023-02-27T15:20:39.290Z,78.00
2023-02-27T15:23:24.721Z,78.40
2023-02-27T15:25:56.979Z,77.90
2023-02-27T15:28:28.947Z,77.70
2023-02-27T15:30:58.669Z,77.30
2023-02-27T15:33:33.252Z,78.20
2023-02-27T15:36:02.450Z,77.60
2023-02-27T15:38:32.488Z,77.40
2023-02-27T15:41:01.789Z,77.70
2023-02-27T15:43:33.176Z,76.80
2023-02-27T15:46:04.960Z,77.50
2023-02-27T15:48:33.733Z,78.00
2023-02-27T15:51:04.618Z,77.20
2023-02-27T15:53:33.995Z,77.00
2023-02-27T15:56:15.122Z,77.50
2023-02-27T15:58:50.472Z,77.90
2023-02-27T16:01:26.034Z,77.10
2023-02-27T16:03:59.305Z,77.40
2023-02-27T16:06:32.994Z,77.30
2023-02-27T16:09:04.321Z,77.00
2023-02-27T16:11:34.333Z,77.20
2023-02-27T16:14:40.954Z,78.10
2023-02-27T16:17:28.749Z,77.20
2023-02-27T16:19:58.328Z,77.20
2023-02-27T16:22:27.233Z,77.70
2023-02-27T16:24:56.033Z,77.10
2023-02-27T16:27:28.930Z,77.50
2023-02-27T16:30:02.336Z,76.20
2023-02-27T16:32:39.947Z,76.40
2023-02-27T16:35:19.529Z,76.40
2023-02-27T16:37:51.512Z,75.90
2023-02-27T16:40:22.379Z,83.60
2023-02-27T16:42:53.635Z,76.90
2023-02-27T16:45:23.456Z,75.20
2023-02-27T16:48:01.387Z,76.60
2023-02-27T16:50:32.583Z,77.70
2023-02-27T16:53:00.676Z,76.00
2023-02-27T16:55:28.967Z,76.20
2023-02-27T16:57:59.872Z,76.20
2023-02-27T17:00:34.895Z,83.70
2023-02-27T17:03:04.543Z,78.10
2023-02-27T17:05:35.195Z,77.50
2023-02-27T17:08:03.295Z,77.80
2023-02-27T17:10:34.783Z,79.20
2023-02-27T17:13:08.086Z,77.70
2023-02-27T17:15:35.923Z,76.90
2023-02-27T17:18:05.246Z,77.30
2023-02-27T17:20:34.827Z,77.20
2023-02-27T17:23:02.719Z,77.50
2023-02-27T17:25:33.666Z,78.20
2023-02-27T17:28:05.646Z,78.90
2023-02-27T17:30:40.485Z,78.50
2023-02-27T17:33:20.264Z,77.80
2023-02-27T17:35:52.888Z,78.50
2023-02-27T17:38:22.550Z,80.40
2023-02-27T17:40:50.406Z,78.60
2023-02-27T17:43:18.281Z,79.90
2023-02-27T17:46:04.203Z,78.60
2023-02-27T17:48:41.924Z,78.80
2023-02-27T17:51:12.436Z,81.10
2023-02-27T17:53:44.047Z,78.90
2023-02-27T17:56:13.470Z,78.50
2023-02-27T17:58:41.557Z,79.60
2023-02-27T18:01:21.494Z,79.50
2023-02-27T18:03:54.278Z,81.70
2023-02-27T18:06:22.810Z,81.50
2023-02-27T18:08:51.012Z,79.10
2023-02-27T18:11:21.375Z,80.20
2023-02-27T18:13:55.184Z,79.80
2023-02-27T18:16:26.235Z,79.30
2023-02-27T18:18:58.334Z,86.50
2023-02-27T18:21:29.128Z,80.40
2023-02-27T18:23:56.997Z,81.20
2023-02-27T18:26:30.313Z,81.40
2023-02-27T18:29:02.581Z,77.10
2023-02-27T18:31:33.172Z,77.50
2023-02-27T18:34:05.907Z,82.70
2023-02-27T18:36:53.350Z,82.40
2023-02-27T18:39:22.791Z,80.10
2023-02-27T18:41:53.524Z,77.30
2023-02-27T18:44:21.400Z,77.80
2023-02-27T18:46:58.146Z,78.50
2023-02-27T18:49:27.418Z,77.50
2023-02-27T18:51:55.267Z,77.30
2023-02-27T18:54:23.123Z,80.20
2023-02-27T18:56:51.757Z,78.80
2023-02-27T18:59:34.910Z,78.60
2023-02-27T19:02:09.978Z,77.90
2023-02-27T19:04:39.211Z,80.50
2023-02-27T19:07:10.154Z,81.50
2023-02-27T19:09:38.014Z,79.50
2023-02-27T19:12:11.865Z,79.30
2023-02-27T19:14:39.823Z,78.00
2023-02-27T19:17:19.830Z,78.90
2023-02-27T19:19:49.223Z,79.00
2023-02-27T19:22:29.302Z,79.60
2023-02-27T19:24:57.568Z,80.00
2023-02-27T19:27:25.646Z,80.50
2023-02-27T19:29:56.697Z,80.10
2023-02-27T19:32:27.751Z,82.60
2023-02-27T19:35:06.719Z,84.10
2023-02-27T19:37:37.542Z,80.70
2023-02-27T19:40:05.790Z,79.80
2023-02-27T19:42:33.716Z,79.60
2023-02-27T19:45:01.552Z,80.50
2023-02-27T19:47:29.368Z,82.10
2023-02-27T19:50:04.993Z,79.30
2023-02-27T19:52:32.861Z,80.70
2023-02-27T19:55:03.634Z,80.70
2023-02-27T19:57:31.586Z,82.30
2023-02-27T20:00:06.759Z,85.80
2023-02-27T20:02:37.400Z,83.10
2023-02-27T20:05:14.213Z,79.90
2023-02-27T20:07:42.441Z,78.70
2023-02-27T20:10:19.906Z,79.40
2023-02-27T20:12:47.765Z,80.20
2023-02-27T20:15:29.516Z,81.50
2023-02-27T20:17:57.392Z,79.50
2023-02-27T20:20:26.762Z,78.50
2023-02-27T20:23:15.340Z,78.90
2023-02-27T20:25:43.181Z,80.00
2023-02-27T20:28:11.011Z,82.40
2023-02-27T20:30:40.386Z,83.10
2023-02-27T20:33:14.263Z,79.40
2023-02-27T20:35:52.188Z,79.80
2023-02-27T20:38:23.225Z,79.60
2023-02-27T20:40:51.304Z,79.60
2023-02-27T20:46:05.516Z,81.90
2023-02-27T20:48:36.684Z,79.60
2023-02-27T20:51:11.397Z,79.60
2023-02-27T20:53:40.539Z,79.90
2023-02-27T20:56:12.321Z,82.60
2023-02-27T20:58:40.598Z,83.60
2023-02-27T21:01:12.959Z,80.80
2023-02-27T21:03:46.410Z,78.80
2023-02-27T21:06:19.818Z,79.10
2023-02-27T21:08:49.478Z,80.50
2023-02-27T21:11:20.358Z,84.30
2023-02-27T21:13:49.893Z,82.00
2023-02-27T21:16:19.470Z,78.80
2023-02-27T21:18:57.422Z,78.90
2023-02-27T21:21:41.487Z,79.40
2023-02-27T21:24:09.595Z,80.30
2023-02-27T21:26:39.324Z,81.50
2023-02-27T21:29:09.317Z,80.60
2023-02-27T21:31:38.574Z,80.70
2023-02-27T21:34:12.508Z,81.10
2023-02-27T21:36:50.003Z,83.20
2023-02-27T21:39:25.333Z,83.50
2023-02-27T21:42:05.803Z,81.70
2023-02-27T21:44:33.702Z,81.70
2023-02-27T21:47:09.687Z,82.00
2023-02-27T21:49:39.114Z,82.80
2023-02-27T21:52:16.052Z,89.50
2023-02-27T21:54:47.068Z,87.50
2023-02-27T21:57:23.984Z,80.80
2023-02-27T21:59:51.805Z,80.40
2023-02-27T22:02:19.711Z,80.90
2023-02-27T22:04:50.536Z,86.00
2023-02-27T22:07:19.699Z,87.70
2023-02-27T22:09:49.784Z,81.20
2023-02-27T22:12:17.835Z,80.20
2023-02-27T22:14:49.105Z,80.20
2023-02-27T22:17:17.051Z,82.30
2023-02-27T22:19:48.481Z,82.30
2023-02-27T22:22:20.689Z,80.50
2023-02-27T22:24:53.345Z,80.80
2023-02-27T22:27:23.995Z,81.90
2023-02-27T22:29:51.906Z,84.40
2023-02-27T22:32:22.246Z,82.20
2023-02-27T22:34:53.180Z,81.90
2023-02-27T22:37:27.126Z,82.80
2023-02-27T22:39:57.486Z,84.10
2023-02-27T22:42:25.417Z,84.20
2023-02-27T22:45:05.617Z,82.70
2023-02-27T22:47:36.704Z,82.10
2023-02-27T22:50:10.201Z,83.90
2023-02-27T22:53:03.604Z,84.50
2023-02-27T22:55:34.268Z,82.80
2023-02-27T22:58:08.256Z,83.50
2023-02-27T23:00:36.113Z,84.90
2023-02-27T23:03:06.965Z,82.60
2023-02-27T23:05:52.880Z,82.50
2023-02-27T23:08:22.098Z,83.60
2023-02-27T23:10:52.996Z,84.70
2023-02-27T23:13:31.958Z,83.30
2023-02-27T23:16:03.425Z,82.70
2023-02-27T23:18:34.408Z,84.80
2023-02-27T23:21:06.529Z,84.10
2023-02-27T23:23:38.572Z,83.20
2023-02-27T23:26:07.454Z,82.20
2023-02-27T23:28:38.900Z,84.20
2023-02-27T23:31:08.465Z,87.70
2023-02-27T23:33:37.026Z,82.80
2023-02-27T23:36:08.599Z,82.20
2023-02-27T23:38:48.940Z,83.90
2023-02-27T23:41:20.796Z,84.20
2023-02-27T23:43:52.509Z,83.10
2023-02-27T23:46:20.745Z,82.80
2023-02-27T23:48:51.286Z,82.60
2023-02-27T23:51:19.163Z,82.60
2023-02-27T23:53:59.830Z,82.50
2023-02-27T23:56:31.856Z,81.10
2023-02-27T23:59:01.876Z,81.60
